This is the latest recevied weather packets stored in our database for station/object IT9RID. If no packets are shown the sender has not sent any weather packets the latest 10 day(s).
| Time | Temp. | Humidity | Pressure | Rain* | Wind** | Luminosity | Snow |
|---|---|---|---|---|---|---|---|
| 1777559552 | 21.67° C | 49% | 1014.4 hPa | 0 mm | - | - | - |
| 1777558952 | 21.67° C | 50% | 1014.4 hPa | 0 mm | - | - | - |
| 1777558352 | 21.11° C | 52% | 1014.4 hPa | 0 mm | - | - | - |
| 1777557752 | 21.67° C | 51% | 1014.4 hPa | 0 mm | - | - | - |
| 1777557151 | 22.78° C | 47% | 1014.4 hPa | 0 mm | - | - | - |
| 1777556551 | 22.22° C | 49% | 1014.4 hPa | 0 mm | - | - | - |
| 1777555951 | 22.78° C | 49% | 1014.6 hPa | 0 mm | - | - | - |
| 1777555351 | 22.22° C | 51% | 1014.6 hPa | 0 mm | - | - | - |
| 1777554751 | 22.22° C | 52% | 1014.7 hPa | 0 mm | - | - | - |
| 1777554151 | 22.78° C | 54% | 1014.6 hPa | 0 mm | - | - | - |
| 1777553551 | 22.78° C | 53% | 1014.8 hPa | 0 mm | - | - | - |
| 1777552950 | 22.22° C | 56% | 1014.7 hPa | 0 mm | - | - | - |
| 1777552350 | 22.22° C | 56% | 1014.7 hPa | 0 mm | - | - | - |
| 1777551750 | 21.67° C | 60% | 1014.7 hPa | 0 mm | - | - | - |
| 1777551150 | 21.11° C | 62% | 1014.9 hPa | 0 mm | - | - | - |
| 1777550550 | 21.11° C | 67% | 1015 hPa | 0 mm | - | - | - |
| 1777549949 | 21.11° C | 69% | 1014.9 hPa | 0 mm | - | - | - |
| 1777549350 | 21.11° C | 69% | 1014.8 hPa | 0 mm | - | - | - |
| 1777548749 | 21.67° C | 69% | 1014.5 hPa | 0 mm | - | - | - |
| 1777548149 | 21.67° C | 71% | 1014.4 hPa | 0 mm | - | - | - |
| 1777547549 | 21.11° C | 74% | 1014.5 hPa | 0 mm | - | - | - |
| 1777546949 | 21.11° C | 74% | 1014.5 hPa | 0 mm | - | - | - |
| 1777546349 | 20.56° C | 73% | 1014.5 hPa | 0 mm | - | - | - |
| 1777545749 | 21.11° C | 73% | 1014.4 hPa | 0 mm | - | - | - |
| 1777545148 | 21.11° C | 74% | 1014.5 hPa | 0 mm | - | - | - |
* Rain latest hour (hover to see other rain measurements)
** Current wind speed in m/s (hover to see current wind gust speed)